Time;durP1;ratioP1;P1;durP2;ratioP2;P2;SDS_P1;SDS_P2;PMS_P1;PMS_P2;Temp;Humidity;BMP_temperature;BMP_pressure;BME280_temperature;BME280_humidity;BME280_pressure;Samples;Min_cycle;Max_cycle;Signal;HPM_P1;HPM_P2
2023/06/09 00:01:25;;;;;;;5.32;2.20;;;18.40;90.70;;;;;;5064583;28;20708;-80
2023/06/09 00:03:52;;;;;;;7.88;2.75;;;18.40;90.80;;;;;;5056954;28;20055;-80
2023/06/09 00:06:22;;;;;;;4.78;2.25;;;18.30;90.90;;;;;;5075101;28;20032;-80
2023/06/09 00:08:52;;;;;;;8.05;2.70;;;18.30;90.90;;;;;;5062509;28;20085;-79
2023/06/09 00:11:18;;;;;;;5.97;2.28;;;18.30;91.00;;;;;;5061513;28;20103;-79
2023/06/09 00:13:45;;;;;;;5.53;2.58;;;18.20;91.10;;;;;;5073314;28;20035;-81
2023/06/09 00:16:11;;;;;;;6.45;2.42;;;18.20;91.10;;;;;;5073881;28;20076;-81
2023/06/09 00:18:40;;;;;;;7.20;2.70;;;18.10;91.20;;;;;;5073026;28;20028;-81
2023/06/09 00:21:06;;;;;;;12.55;3.15;;;18.00;91.30;;;;;;5058172;28;20177;-81
2023/06/09 00:23:32;;;;;;;4.75;2.85;;;18.00;91.30;;;;;;5058571;28;20043;-80
2023/06/09 00:25:58;;;;;;;5.97;2.67;;;18.00;91.40;;;;;;5072657;28;20028;-81
2023/06/09 00:28:23;;;;;;;7.13;2.58;;;18.00;91.40;;;;;;5056747;28;20494;-81
2023/06/09 00:30:49;;;;;;;5.57;2.72;;;17.90;91.40;;;;;;5073625;28;20576;-81
2023/06/09 00:33:15;;;;;;;7.95;3.20;;;18.00;91.50;;;;;;5071874;28;20059;-81
2023/06/09 00:35:41;;;;;;;6.07;2.40;;;17.90;91.50;;;;;;5074204;28;20193;-81
2023/06/09 00:38:06;;;;;;;5.97;2.70;;;17.80;91.50;;;;;;5057805;28;20020;-81
2023/06/09 00:40:32;;;;;;;6.00;2.22;;;17.80;91.60;;;;;;5057056;28;20034;-81
2023/06/09 00:42:59;;;;;;;7.47;2.90;;;17.80;91.60;;;;;;5057064;28;20012;-81
2023/06/09 00:45:25;;;;;;;5.65;2.80;;;17.70;91.70;;;;;;5054910;28;20025;-81
2023/06/09 00:47:51;;;;;;;4.57;2.45;;;17.80;91.80;;;;;;5073186;28;20028;-82
2023/06/09 00:50:19;;;;;;;4.28;2.30;;;17.70;91.80;;;;;;5062117;28;20416;-82
2023/06/09 00:52:46;;;;;;;5.60;2.45;;;17.70;91.80;;;;;;5073472;28;20031;-80
2023/06/09 00:55:13;;;;;;;6.90;2.45;;;17.70;91.90;;;;;;5073178;28;20067;-81
2023/06/09 00:57:39;;;;;;;5.15;2.30;;;17.70;91.90;;;;;;5072586;28;20056;-81
2023/06/09 01:00:06;;;;;;;7.45;2.75;;;17.70;91.90;;;;;;5072318;28;20261;-81
2023/06/09 01:02:32;;;;;;;6.22;2.53;;;17.70;91.90;;;;;;5058319;28;20401;-81
2023/06/09 01:04:58;;;;;;;4.40;2.22;;;17.70;92.00;;;;;;5073355;28;20031;-81
2023/06/09 01:07:42;;;;;;;6.63;2.70;;;17.70;92.00;;;;;;5071402;28;20416;-82
2023/06/09 01:10:46;;;;;;;6.43;2.90;;;17.70;92.00;;;;;;5072626;28;20081;-81
2023/06/09 01:13:24;;;;;;;9.38;2.92;;;17.70;92.00;;;;;;5061747;28;20024;-81
2023/06/09 01:15:59;;;;;;;7.53;2.17;;;17.70;92.10;;;;;;5056232;28;20024;-81
2023/06/09 01:18:30;;;;;;;6.65;2.42;;;17.60;92.10;;;;;;5073038;28;20028;-81
2023/06/09 01:21:22;;;;;;;4.88;2.35;;;17.60;92.10;;;;;;5074057;28;20071;-81
2023/06/09 01:24:04;;;;;;;6.15;2.60;;;17.60;92.20;;;;;;5071418;28;20446;-82
2023/06/09 01:26:31;;;;;;;6.22;2.65;;;17.60;92.30;;;;;;5057658;28;20032;-81
2023/06/09 01:28:59;;;;;;;6.20;2.78;;;17.50;92.30;;;;;;5056436;28;20063;-81
2023/06/09 01:31:25;;;;;;;7.30;3.20;;;17.50;92.40;;;;;;5071999;28;20023;-81
2023/06/09 01:33:51;;;;;;;8.07;2.80;;;17.40;92.50;;;;;;5073404;28;20501;-82
2023/06/09 01:36:17;;;;;;;5.90;2.60;;;17.40;92.50;;;;;;5058900;28;20035;-81
2023/06/09 01:38:43;;;;;;;6.35;2.88;;;17.40;92.60;;;;;;5071138;28;20036;-82
2023/06/09 01:41:09;;;;;;;6.32;2.80;;;17.30;92.60;;;;;;5070928;28;20552;-81
2023/06/09 01:43:35;;;;;;;6.22;2.50;;;17.20;92.70;;;;;;5073529;28;20046;-81
2023/06/09 01:46:00;;;;;;;5.53;2.50;;;17.20;92.80;;;;;;5061257;28;20487;-81
2023/06/09 01:48:33;;;;;;;7.95;3.30;;;17.10;92.90;;;;;;5073014;28;20055;-81
2023/06/09 01:51:13;;;;;;;5.50;2.97;;;17.10;93.00;;;;;;5073835;28;20023;-81
2023/06/09 01:53:44;;;;;;;7.15;3.63;;;17.10;93.10;;;;;;5071657;28;20035;-81
2023/06/09 01:56:21;;;;;;;7.70;3.13;;;17.00;93.10;;;;;;5072312;28;20025;-81
2023/06/09 01:58:51;;;;;;;6.25;2.60;;;17.00;93.10;;;;;;5054913;28;20061;-82
2023/06/09 02:01:18;;;;;;;7.05;2.97;;;16.90;93.50;;;;;;5072432;28;20042;-81
2023/06/09 02:03:46;;;;;;;6.80;2.90;;;16.90;93.30;;;;;;5073025;28;20028;-81
2023/06/09 02:06:12;;;;;;;5.32;2.42;;;16.90;93.40;;;;;;5056005;28;20095;-81
2023/06/09 02:08:38;;;;;;;6.78;2.90;;;16.90;93.50;;;;;;5071086;28;20100;-82
2023/06/09 02:11:04;;;;;;;9.27;2.72;;;16.80;93.50;;;;;;5054588;28;20531;-81
2023/06/09 02:13:29;;;;;;;5.32;2.42;;;16.80;93.60;;;;;;5059992;28;20032;-81
2023/06/09 02:15:55;;;;;;;5.43;2.22;;;16.70;93.70;;;;;;5057234;28;20082;-82
2023/06/09 02:18:22;;;;;;;8.05;2.72;;;16.70;93.70;;;;;;5072015;28;20043;-82
2023/06/09 02:20:49;;;;;;;6.35;2.80;;;16.70;93.80;;;;;;5067374;28;20381;-82
2023/06/09 02:23:17;;;;;;;7.35;2.30;;;16.60;93.90;;;;;;5074164;28;20043;-81
2023/06/09 02:25:42;;;;;;;6.45;2.53;;;16.60;93.90;;;;;;5077200;28;20035;-79
2023/06/09 02:28:08;;;;;;;5.80;2.45;;;16.50;94.00;;;;;;5075932;28;20033;-80
2023/06/09 02:30:34;;;;;;;5.93;2.50;;;16.50;94.10;;;;;;5060545;28;20024;-80
2023/06/09 02:33:01;;;;;;;6.00;2.38;;;16.40;94.10;;;;;;5076049;28;20033;-80
2023/06/09 02:35:28;;;;;;;7.35;3.25;;;16.40;94.20;;;;;;5065547;28;20468;-79
2023/06/09 02:37:54;;;;;;;6.90;3.15;;;16.40;94.30;;;;;;5075660;28;20032;-80
2023/06/09 02:40:20;;;;;;;7.57;3.22;;;16.30;94.30;;;;;;5075428;28;20114;-80
2023/06/09 02:42:46;;;;;;;5.43;2.45;;;16.30;94.40;;;;;;5060398;28;20082;-81
2023/06/09 02:45:12;;;;;;;8.52;2.85;;;16.30;94.50;;;;;;5065317;28;20063;-80
2023/06/09 02:47:38;;;;;;;5.68;2.20;;;16.30;94.50;;;;;;5075568;28;20107;-80
2023/06/09 02:50:05;;;;;;;8.10;2.75;;;16.20;94.50;;;;;;5060592;28;20044;-79
2023/06/09 02:52:31;;;;;;;5.10;2.47;;;16.20;94.60;;;;;;5075244;28;20608;-80
2023/06/09 02:54:57;;;;;;;6.28;2.63;;;16.20;94.70;;;;;;5064913;28;20130;-80
2023/06/09 02:57:23;;;;;;;7.65;3.20;;;16.10;94.70;;;;;;5075636;28;20605;-82
2023/06/09 02:59:48;;;;;;;5.93;2.75;;;16.10;94.80;;;;;;5074436;28;20043;-80
2023/06/09 03:02:15;;;;;;;6.97;2.78;;;16.00;94.80;;;;;;5059804;28;20028;-79
2023/06/09 03:04:42;;;;;;;6.40;2.55;;;16.00;94.90;;;;;;5063198;28;20032;-80
2023/06/09 03:07:16;;;;;;;6.63;2.60;;;15.90;94.90;;;;;;5074005;28;20024;-80
2023/06/09 03:09:44;;;;;;;7.72;3.15;;;15.90;94.90;;;;;;5074770;28;20047;-80
2023/06/09 03:12:10;;;;;;;5.90;2.35;;;15.90;95.10;;;;;;5063791;28;20031;-79
2023/06/09 03:14:36;;;;;;;6.07;2.83;;;15.80;95.10;;;;;;5076165;28;20021;-80
2023/06/09 03:17:04;;;;;;;7.38;2.83;;;15.80;95.10;;;;;;5075015;28;20039;-81
2023/06/09 03:19:32;;;;;;;6.13;2.80;;;15.80;95.10;;;;;;5076269;28;20024;-80
2023/06/09 03:21:58;;;;;;;7.70;2.45;;;15.80;95.20;;;;;;5073341;28;20032;-80
2023/06/09 03:24:24;;;;;;;5.35;2.22;;;15.80;95.10;;;;;;5074968;28;20036;-81
2023/06/09 03:26:52;;;;;;;6.30;2.83;;;15.80;95.20;;;;;;5062287;28;20039;-80
2023/06/09 03:29:18;;;;;;;5.80;2.83;;;15.70;95.20;;;;;;5063564;28;20475;-80
2023/06/09 03:31:44;;;;;;;6.65;2.85;;;15.70;95.30;;;;;;5075111;28;20028;-80
2023/06/09 03:34:09;;;;;;;8.50;3.03;;;15.70;95.30;;;;;;5064389;28;20031;-81
2023/06/09 03:36:35;;;;;;;7.95;2.72;;;15.70;95.40;;;;;;5074219;28;20036;-80
2023/06/09 03:39:01;;;;;;;7.72;2.95;;;15.70;95.40;;;;;;5072002;28;20036;-81
2023/06/09 03:41:27;;;;;;;6.50;2.85;;;15.70;95.40;;;;;;5073952;28;20040;-81
2023/06/09 03:43:52;;;;;;;6.30;2.75;;;15.60;95.50;;;;;;5074309;28;20390;-80
2023/06/09 03:46:18;;;;;;;9.05;2.95;;;15.60;95.50;;;;;;5073865;28;20382;-81
2023/06/09 03:48:43;;;;;;;9.25;3.17;;;15.60;95.60;;;;;;5064890;28;21315;-80
2023/06/09 03:51:09;;;;;;;5.07;2.75;;;15.60;95.60;;;;;;5073723;28;20036;-80
2023/06/09 03:53:35;;;;;;;6.15;2.58;;;15.60;95.70;;;;;;5073490;28;20032;-80
2023/06/09 03:56:00;;;;;;;8.52;2.85;;;15.50;95.70;;;;;;5073584;28;20071;-80
2023/06/09 03:58:26;;;;;;;7.22;2.80;;;15.50;95.80;;;;;;5074354;28;20040;-80
2023/06/09 04:00:52;;;;;;;7.13;2.42;;;15.50;95.90;;;;;;5057303;28;20055;-80
2023/06/09 04:03:20;;;;;;;5.07;2.40;;;15.50;95.90;;;;;;5075752;28;20020;-80
2023/06/09 04:05:46;;;;;;;7.20;2.60;;;15.50;95.90;;;;;;5056600;28;20047;-80
2023/06/09 04:08:12;;;;;;;5.85;2.47;;;15.50;95.90;;;;;;5073242;28;20024;-80
2023/06/09 04:10:38;;;;;;;7.53;3.10;;;15.60;95.90;;;;;;5062623;28;20025;-81
2023/06/09 04:13:03;;;;;;;5.70;2.40;;;15.60;95.90;;;;;;5074372;28;20070;-80
2023/06/09 04:15:29;;;;;;;5.43;2.63;;;15.60;96.00;;;;;;5073775;28;20039;-81
2023/06/09 04:17:55;;;;;;;6.28;2.75;;;15.60;96.00;;;;;;5074877;28;20030;-81
2023/06/09 04:20:22;;;;;;;8.70;3.33;;;15.60;96.10;;;;;;5064123;28;20549;-80
2023/06/09 04:22:49;;;;;;;6.05;2.72;;;15.60;96.10;;;;;;5073100;28;20048;-80
2023/06/09 04:25:16;;;;;;;5.53;2.55;;;15.60;96.10;;;;;;5057353;28;20027;-81
2023/06/09 04:27:42;;;;;;;7.82;2.75;;;15.60;96.20;;;;;;5075318;28;20052;-80
2023/06/09 04:30:08;;;;;;;7.20;3.15;;;15.70;96.20;;;;;;5063589;28;20067;-81
2023/06/09 04:32:34;;;;;;;6.72;2.40;;;15.60;96.30;;;;;;5064263;28;20020;-81
2023/06/09 04:35:01;;;;;;;8.20;3.08;;;15.70;96.30;;;;;;5057522;28;20028;-81
2023/06/09 04:37:27;;;;;;;5.63;2.65;;;15.70;96.40;;;;;;5072935;28;20040;-80
2023/06/09 04:39:52;;;;;;;5.80;2.63;;;15.70;96.40;;;;;;5064755;28;20036;-80
2023/06/09 04:42:20;;;;;;;7.28;2.80;;;15.70;96.40;;;;;;5073031;28;20062;-81
2023/06/09 04:44:47;;;;;;;5.05;2.70;;;15.80;96.40;;;;;;5074012;28;22435;-81
2023/06/09 04:47:17;;;;;;;7.22;2.67;;;15.80;96.40;;;;;;5074211;28;20478;-81
2023/06/09 04:49:46;;;;;;;7.30;3.13;;;15.90;96.40;;;;;;5057152;28;20059;-80
2023/06/09 04:52:18;;;;;;;5.25;2.80;;;15.90;96.40;;;;;;5073069;28;20028;-80
2023/06/09 04:54:44;;;;;;;9.82;3.38;;;16.00;96.50;;;;;;5073396;28;20492;-80
2023/06/09 04:57:10;;;;;;;8.50;3.58;;;16.00;96.50;;;;;;5072762;28;20043;-80
2023/06/09 04:59:40;;;;;;;5.93;2.67;;;16.10;96.50;;;;;;5073538;28;20032;-79
2023/06/09 05:02:08;;;;;;;5.97;2.47;;;16.10;96.50;;;;;;5072930;28;20059;-79
2023/06/09 05:04:34;;;;;;;6.63;2.67;;;16.20;96.50;;;;;;5072582;28;20391;-80
2023/06/09 05:07:00;;;;;;;6.28;2.72;;;16.20;96.50;;;;;;5071730;28;20022;-79
2023/06/09 05:09:26;;;;;;;8.25;3.13;;;16.30;96.50;;;;;;5073217;28;20048;-79
2023/06/09 05:11:52;;;;;;;6.47;3.00;;;16.30;96.60;;;;;;5071407;28;20078;-79
2023/06/09 05:14:18;;;;;;;7.45;3.13;;;16.30;96.60;;;;;;5073721;28;20625;-79
2023/06/09 05:16:45;;;;;;;7.43;2.90;;;16.40;96.70;;;;;;5073603;28;20155;-81
2023/06/09 05:19:11;;;;;;;5.95;2.97;;;16.40;96.70;;;;;;5072267;28;20024;-79
2023/06/09 05:21:37;;;;;;;5.93;2.85;;;16.40;96.70;;;;;;5072018;28;20036;-78
2023/06/09 05:24:03;;;;;;;6.78;3.72;;;16.40;96.70;;;;;;5072330;28;20048;-80
2023/06/09 05:26:29;;;;;;;7.85;3.25;;;16.40;96.80;;;;;;5072955;28;20482;-79
2023/06/09 05:28:55;;;;;;;6.25;3.05;;;16.50;96.80;;;;;;5071895;28;20023;-80
2023/06/09 05:31:20;;;;;;;6.38;3.20;;;16.50;96.80;;;;;;5073886;28;20082;-80
2023/06/09 05:33:46;;;;;;;7.22;3.45;;;16.50;96.80;;;;;;5072216;28;21029;-81
2023/06/09 05:36:12;;;;;;;7.40;3.42;;;16.50;96.80;;;;;;5065109;28;20169;-80
2023/06/09 05:38:37;;;;;;;6.07;3.03;;;16.60;96.90;;;;;;5072391;28;20465;-80
2023/06/09 05:41:03;;;;;;;7.72;3.72;;;16.70;96.90;;;;;;5056091;28;20032;-80
2023/06/09 05:43:29;;;;;;;5.65;3.03;;;16.70;96.90;;;;;;5075577;28;20039;-79
2023/06/09 05:45:56;;;;;;;7.70;3.70;;;16.70;96.80;;;;;;5072618;28;20047;-80
2023/06/09 05:48:22;;;;;;;8.38;3.80;;;16.80;96.90;;;;;;5071618;28;20115;-80
2023/06/09 05:50:48;;;;;;;9.80;3.72;;;16.80;96.90;;;;;;5071289;28;20040;-80
2023/06/09 05:53:17;;;;;;;8.63;3.55;;;16.80;96.90;;;;;;5057747;28;20119;-81
2023/06/09 05:55:45;;;;;;;6.63;3.08;;;16.90;96.90;;;;;;5077023;28;20016;-79
2023/06/09 05:58:13;;;;;;;6.97;3.60;;;16.90;96.90;;;;;;5076642;28;20077;-79
2023/06/09 06:00:38;;;;;;;7.75;3.92;;;17.00;97.00;;;;;;5065909;28;20077;-79
2023/06/09 06:03:06;;;;;;;7.70;3.60;;;17.00;96.90;;;;;;5060035;28;20051;-80
2023/06/09 06:05:31;;;;;;;7.18;2.92;;;17.10;96.90;;;;;;5065993;28;20346;-79
2023/06/09 06:07:58;;;;;;;8.10;3.38;;;17.10;96.90;;;;;;5058847;28;20127;-80
2023/06/09 06:10:25;;;;;;;6.75;3.70;;;17.10;96.90;;;;;;5060599;28;20086;-82
2023/06/09 06:12:50;;;;;;;7.65;3.65;;;17.20;96.90;;;;;;5074555;28;20481;-82
2023/06/09 06:15:16;;;;;;;10.57;3.85;;;17.20;96.90;;;;;;5074516;28;20111;-84
2023/06/09 06:17:41;;;;;;;7.13;3.55;;;17.30;97.00;;;;;;5076359;28;21491;-84
2023/06/09 06:20:07;;;;;;;6.03;2.50;;;17.30;96.90;;;;;;5064654;28;20508;-83
2023/06/09 06:22:33;;;;;;;7.82;3.65;;;17.40;96.90;;;;;;5059801;28;20529;-79
2023/06/09 06:24:59;;;;;;;7.40;3.47;;;17.50;96.90;;;;;;5051936;28;20115;-80
2023/06/09 06:27:24;;;;;;;7.50;3.00;;;17.50;96.90;;;;;;5068693;28;20063;-80
2023/06/09 06:29:50;;;;;;;6.75;3.40;;;17.60;96.90;;;;;;5053720;28;20082;-79
2023/06/09 06:32:16;;;;;;;7.82;3.30;;;17.70;96.90;;;;;;5053891;28;20048;-80
2023/06/09 06:34:42;;;;;;;6.68;3.13;;;17.70;96.90;;;;;;5053349;28;20031;-79
2023/06/09 06:37:07;;;;;;;6.35;2.85;;;17.80;97.00;;;;;;5052474;28;20168;-79
2023/06/09 06:39:33;;;;;;;8.70;3.95;;;17.80;96.90;;;;;;5052762;28;20032;-82
2023/06/09 06:41:59;;;;;;;5.88;3.63;;;17.90;96.90;;;;;;5051780;28;20111;-80
2023/06/09 06:44:25;;;;;;;7.25;3.53;;;17.90;97.00;;;;;;5055043;28;20021;-79
2023/06/09 06:46:50;;;;;;;9.10;4.10;;;18.00;97.00;;;;;;5052114;28;20032;-80
2023/06/09 06:49:16;;;;;;;7.95;4.10;;;18.00;97.00;;;;;;5052880;28;20036;-81
2023/06/09 06:51:42;;;;;;;6.88;3.88;;;18.10;97.00;;;;;;5053435;28;20024;-80
2023/06/09 06:54:07;;;;;;;7.50;3.33;;;18.10;97.00;;;;;;5052135;28;20033;-80
2023/06/09 06:56:33;;;;;;;6.43;3.63;;;18.10;97.00;;;;;;5054700;28;20040;-82
2023/06/09 06:58:58;;;;;;;8.13;4.00;;;18.30;97.00;;;;;;5058589;28;20081;-81
2023/06/09 07:01:24;;;;;;;6.80;4.05;;;18.30;97.00;;;;;;5054802;28;20111;-82
2023/06/09 07:03:50;;;;;;;7.60;4.00;;;18.40;97.00;;;;;;5057800;28;20043;-82
2023/06/09 07:06:17;;;;;;;6.18;3.55;;;18.50;97.00;;;;;;5052610;28;20413;-82
2023/06/09 07:08:43;;;;;;;6.97;3.85;;;18.50;97.00;;;;;;5053314;28;20024;-82
2023/06/09 07:11:09;;;;;;;6.60;3.70;;;18.60;96.90;;;;;;5052322;28;20036;-80
2023/06/09 07:13:35;;;;;;;11.23;4.07;;;18.60;97.00;;;;;;5054297;28;20043;-81
2023/06/09 07:16:01;;;;;;;6.95;3.42;;;18.70;97.00;;;;;;5052889;28;20055;-80
2023/06/09 07:18:27;;;;;;;6.25;3.28;;;18.70;96.90;;;;;;5056714;28;20013;-81
2023/06/09 07:20:53;;;;;;;8.57;4.38;;;18.80;97.00;;;;;;5054883;28;20048;-82
2023/06/09 07:23:19;;;;;;;9.20;3.80;;;18.80;97.00;;;;;;5059441;28;20056;-82
2023/06/09 07:25:44;;;;;;;6.50;3.90;;;18.90;97.00;;;;;;5055397;28;20547;-82
2023/06/09 07:28:10;;;;;;;8.68;4.28;;;19.00;97.00;;;;;;5055970;28;20033;-83
2023/06/09 07:30:37;;;;;;;7.78;3.58;;;19.00;97.00;;;;;;5053391;28;20043;-82
2023/06/09 07:33:04;;;;;;;6.15;3.92;;;19.10;97.00;;;;;;5055081;28;20021;-82
2023/06/09 07:35:30;;;;;;;6.70;3.88;;;19.10;96.90;;;;;;5055313;28;20024;-82
2023/06/09 07:37:56;;;;;;;7.80;4.68;;;19.20;96.90;;;;;;5053509;28;20658;-81
2023/06/09 07:40:22;;;;;;;8.68;4.20;;;19.30;97.20;;;;;;5058564;28;20052;-82
2023/06/09 07:42:50;;;;;;;6.82;3.92;;;19.30;96.90;;;;;;5054736;28;20017;-81
2023/06/09 07:45:16;;;;;;;9.15;3.80;;;19.40;96.90;;;;;;5054337;28;20040;-81
2023/06/09 07:47:42;;;;;;;9.00;4.07;;;19.50;96.90;;;;;;5054516;28;20029;-80
2023/06/09 07:50:08;;;;;;;7.18;3.67;;;19.50;96.90;;;;;;5054275;28;20039;-80
2023/06/09 07:52:36;;;;;;;6.15;3.53;;;19.60;96.80;;;;;;5054942;28;20059;-82
2023/06/09 07:55:03;;;;;;;7.05;3.85;;;19.60;96.80;;;;;;5053427;28;20477;-81
2023/06/09 07:57:28;;;;;;;5.38;3.50;;;19.70;96.80;;;;;;5062646;28;20048;-83
2023/06/09 07:59:55;;;;;;;7.25;4.03;;;19.80;96.80;;;;;;5054294;28;22455;-80
2023/06/09 08:02:21;;;;;;;6.07;3.60;;;19.80;96.70;;;;;;5053242;28;20031;-82
2023/06/09 08:04:46;;;;;;;6.40;3.85;;;19.90;96.80;;;;;;5055623;28;20032;-82
2023/06/09 08:07:12;;;;;;;7.53;4.18;;;20.00;96.80;;;;;;5054373;28;20051;-83
2023/06/09 08:09:37;;;;;;;8.20;4.35;;;20.20;96.80;;;;;;5053764;28;20095;-81
2023/06/09 08:12:06;;;;;;;5.90;3.88;;;20.20;96.70;;;;;;5057509;28;20020;-82
2023/06/09 08:14:32;;;;;;;7.65;4.10;;;20.30;96.70;;;;;;5058124;28;20045;-83
2023/06/09 08:16:57;;;;;;;6.78;4.32;;;20.50;96.60;;;;;;5052845;28;20518;-82
2023/06/09 08:19:23;;;;;;;6.88;3.55;;;20.60;96.60;;;;;;5054456;28;20086;-81
2023/06/09 08:21:48;;;;;;;6.82;3.85;;;20.70;96.50;;;;;;5052938;28;20496;-82
2023/06/09 08:24:14;;;;;;;5.65;3.75;;;20.70;96.50;;;;;;5073730;28;20024;-82
2023/06/09 08:26:41;;;;;;;7.32;4.35;;;20.80;96.50;;;;;;5064982;28;20174;-82
2023/06/09 08:29:07;;;;;;;6.13;4.10;;;20.90;96.50;;;;;;5072807;28;20036;-82
2023/06/09 08:31:36;;;;;;;6.47;3.88;;;21.00;96.50;;;;;;5070822;28;20082;-82
2023/06/09 08:34:02;;;;;;;6.68;3.90;;;21.10;96.50;;;;;;5073812;28;20073;-82
2023/06/09 08:36:27;;;;;;;7.15;4.03;;;21.20;96.40;;;;;;5063879;28;20020;-81
2023/06/09 08:38:53;;;;;;;6.10;3.55;;;21.30;96.40;;;;;;5056928;28;20039;-82
2023/06/09 08:41:22;;;;;;;7.53;3.70;;;21.50;96.40;;;;;;5075240;28;20040;-82
2023/06/09 08:43:48;;;;;;;7.00;3.75;;;21.60;96.40;;;;;;5073986;28;20508;-81
2023/06/09 08:46:15;;;;;;;6.70;4.00;;;21.70;96.30;;;;;;5057026;28;20034;-82
2023/06/09 08:48:47;;;;;;;7.90;4.00;;;21.80;96.20;;;;;;5071733;28;20056;-81
2023/06/09 08:51:12;;;;;;;6.28;3.95;;;21.90;96.20;;;;;;5073617;28;20031;-82
2023/06/09 08:53:39;;;;;;;5.32;3.58;;;22.00;96.20;;;;;;5072823;28;20028;-83
2023/06/09 08:56:05;;;;;;;7.10;3.67;;;22.10;96.10;;;;;;5059426;28;20036;-82
2023/06/09 08:58:32;;;;;;;7.60;4.57;;;22.20;96.10;;;;;;5072969;28;20031;-82
2023/06/09 09:00:57;;;;;;;6.68;4.40;;;22.30;96.00;;;;;;5071815;28;20032;-81
2023/06/09 09:03:23;;;;;;;7.25;4.07;;;22.40;96.00;;;;;;5072491;28;20032;-83
2023/06/09 09:05:49;;;;;;;4.95;3.60;;;22.60;96.00;;;;;;5072479;28;20039;-82
2023/06/09 09:08:14;;;;;;;6.78;3.55;;;22.70;95.90;;;;;;5073717;28;20026;-82
2023/06/09 09:10:41;;;;;;;7.82;3.90;;;22.80;95.80;;;;;;5073747;28;20040;-83
2023/06/09 09:13:10;;;;;;;7.15;4.47;;;23.10;95.80;;;;;;5073614;28;20031;-82
2023/06/09 09:15:37;;;;;;;7.18;4.82;;;23.20;95.60;;;;;;5072861;28;20770;-82
2023/06/09 09:18:07;;;;;;;6.95;4.15;;;23.30;95.50;;;;;;5072484;28;20027;-81
2023/06/09 09:20:34;;;;;;;7.10;4.45;;;23.40;95.50;;;;;;5072934;28;20028;-82
2023/06/09 09:23:01;;;;;;;7.65;4.07;;;23.50;95.40;;;;;;5056818;28;20050;-82
2023/06/09 09:25:28;;;;;;;8.43;4.00;;;23.60;95.30;;;;;;5074418;28;20028;-80
2023/06/09 09:28:01;;;;;;;7.53;4.30;;;23.80;95.20;;;;;;5074471;28;20035;-82
2023/06/09 09:30:50;;;;;;;7.07;4.00;;;24.00;95.20;;;;;;5071864;28;20032;-82
2023/06/09 09:33:20;;;;;;;5.53;3.58;;;24.60;95.40;;;;;;5073736;28;20103;-83
2023/06/09 09:35:49;;;;;;;5.35;3.10;;;25.70;95.00;;;;;;5072916;28;20024;-84
2023/06/09 09:38:21;;;;;;;6.50;3.25;;;26.90;94.50;;;;;;5072616;28;20150;-83
2023/06/09 09:40:50;;;;;;;5.03;3.33;;;28.00;94.00;;;;;;5074084;28;20062;-82
2023/06/09 09:43:16;;;;;;;5.80;3.33;;;28.80;93.40;;;;;;5072650;28;20031;-80
2023/06/09 09:45:47;;;;;;;4.18;2.95;;;29.40;92.70;;;;;;5071718;28;20040;-83
2023/06/09 09:48:14;;;;;;;6.97;3.10;;;29.90;92.50;;;;;;5071838;28;20039;-83
2023/06/09 09:50:45;;;;;;;5.22;3.30;;;30.30;92.10;;;;;;5073844;28;20017;-83
2023/06/09 09:53:12;;;;;;;4.47;2.90;;;30.80;91.80;;;;;;5056917;28;20035;-83
2023/06/09 09:55:41;;;;;;;5.80;3.55;;;31.30;91.50;;;;;;5074091;28;20099;-84
2023/06/09 09:58:08;;;;;;;4.85;2.80;;;31.70;90.90;;;;;;5072701;28;20032;-84
2023/06/09 10:00:36;;;;;;;4.85;2.95;;;32.00;90.70;;;;;;5071265;28;20032;-83
2023/06/09 10:03:15;;;;;;;6.13;3.17;;;32.20;90.20;;;;;;5072740;28;20126;-83
2023/06/09 10:05:49;;;;;;;6.35;3.40;;;32.60;89.70;;;;;;5061897;28;20038;-82
2023/06/09 10:08:30;;;;;;;5.88;3.78;;;32.80;88.60;;;;;;5072093;28;20385;-83
2023/06/09 10:10:59;;;;;;;4.53;3.05;;;32.90;87.60;;;;;;5062545;28;20039;-82
2023/06/09 10:13:26;;;;;;;6.45;3.80;;;33.00;86.80;;;;;;5074104;28;20028;-83
2023/06/09 10:15:53;;;;;;;5.40;3.67;;;33.30;85.60;;;;;;5071012;28;20147;-82
2023/06/09 10:18:20;;;;;;;5.05;3.03;;;33.30;85.50;;;;;;5072375;28;20474;-82
2023/06/09 10:20:48;;;;;;;5.15;3.03;;;33.40;84.70;;;;;;5073377;28;20043;-83
2023/06/09 10:23:14;;;;;;;4.60;3.20;;;33.80;84.00;;;;;;5071863;28;20498;-84
2023/06/09 10:25:41;;;;;;;5.70;3.42;;;33.80;83.00;;;;;;5073482;28;20032;-82
2023/06/09 10:28:07;;;;;;;4.93;3.42;;;33.80;82.40;;;;;;5062952;28;20500;-83
2023/06/09 10:30:33;;;;;;;4.30;2.70;;;33.80;82.30;;;;;;5064416;28;20024;-81
2023/06/09 10:33:05;;;;;;;4.68;2.90;;;33.90;82.00;;;;;;5072552;28;20044;-82
2023/06/09 10:35:34;;;;;;;4.47;3.00;;;34.20;81.50;;;;;;5071494;28;20028;-82
2023/06/09 10:38:20;;;;;;;4.65;2.40;;;34.40;81.00;;;;;;5072002;28;20024;-83
2023/06/09 10:40:52;;;;;;;3.47;2.47;;;34.60;80.40;;;;;;5064025;28;20047;-83
2023/06/09 10:43:48;;;;;;;6.05;3.35;;;34.80;79.60;;;;;;5076485;28;20069;-83
2023/06/09 10:46:13;;;;;;;4.70;2.90;;;35.20;78.80;;;;;;5076115;28;20565;-83
2023/06/09 10:48:49;;;;;;;4.18;2.95;;;35.20;78.50;;;;;;5075406;28;20085;-83
2023/06/09 10:51:27;;;;;;;4.22;2.70;;;35.40;78.10;;;;;;5059637;28;20114;-84
2023/06/09 10:54:07;;;;;;;4.68;2.78;;;35.50;77.50;;;;;;5075405;28;20024;-82
2023/06/09 10:56:37;;;;;;;4.70;3.00;;;35.60;76.90;;;;;;5077203;28;20090;-84
2023/06/09 10:59:03;;;;;;;5.43;3.10;;;35.60;76.70;;;;;;5075066;28;20456;-82
2023/06/09 11:01:29;;;;;;;3.58;2.70;;;35.60;75.90;;;;;;5074985;28;20417;-82
2023/06/09 11:03:55;;;;;;;4.10;2.85;;;35.70;75.70;;;;;;5074710;28;20020;-82
2023/06/09 11:06:20;;;;;;;4.43;2.90;;;35.80;76.00;;;;;;5075034;28;20043;-83
2023/06/09 11:09:12;;;;;;;4.60;3.17;;;35.80;75.20;;;;;;5076444;28;20604;-83
2023/06/09 11:11:51;;;;;;;4.30;3.00;;;36.00;74.80;;;;;;5076452;28;20027;-83
2023/06/09 11:14:46;;;;;;;4.40;3.25;;;36.20;74.10;;;;;;5074214;28;20028;-83
2023/06/09 11:17:30;;;;;;;5.20;3.05;;;36.40;72.80;;;;;;5075074;28;20032;-81
2023/06/09 11:20:08;;;;;;;4.43;2.60;;;36.50;72.80;;;;;;5075231;28;20051;-83
2023/06/09 11:22:49;;;;;;;4.30;2.85;;;36.60;72.40;;;;;;5068032;28;20048;-83
2023/06/09 11:25:15;;;;;;;3.92;2.50;;;36.50;72.20;;;;;;5076837;28;20181;-84
2023/06/09 11:27:41;;;;;;;4.80;2.97;;;36.60;72.50;;;;;;5064346;28;20481;-83
2023/06/09 11:30:18;;;;;;;4.18;2.83;;;36.60;71.80;;;;;;5073800;28;20086;-83
2023/06/09 11:32:59;;;;;;;4.97;3.08;;;36.60;71.50;;;;;;5075132;28;20031;-82
2023/06/09 11:35:31;;;;;;;4.25;2.60;;;36.60;71.50;;;;;;5074293;28;20031;-84
2023/06/09 11:38:18;;;;;;;5.43;3.08;;;36.60;71.00;;;;;;5075698;28;20042;-82
2023/06/09 11:40:51;;;;;;;5.07;2.90;;;36.60;70.70;;;;;;5075414;28;20047;-83
2023/06/09 11:43:21;;;;;;;3.63;2.85;;;36.60;70.30;;;;;;5076090;28;20355;-80
2023/06/09 11:45:47;;;;;;;3.65;2.72;;;36.60;70.00;;;;;;5058476;28;20024;-81
2023/06/09 11:48:15;;;;;;;3.55;2.60;;;36.60;69.50;;;;;;5064038;28;20044;-82
2023/06/09 11:50:43;;;;;;;5.32;2.85;;;36.80;69.40;;;;;;5075097;28;20035;-80
2023/06/09 11:53:10;;;;;;;3.95;2.90;;;36.80;69.20;;;;;;5075057;28;20069;-80
2023/06/09 11:55:36;;;;;;;4.30;2.85;;;36.80;69.00;;;;;;5062619;28;20032;-81
2023/06/09 11:58:03;;;;;;;4.03;2.70;;;36.90;69.40;;;;;;5072545;28;20097;-80
2023/06/09 12:00:30;;;;;;;4.10;3.00;;;37.00;68.80;;;;;;5074984;28;20032;-81
2023/06/09 12:02:57;;;;;;;2.72;2.50;;;37.20;68.30;;;;;;5059187;28;20040;-81
2023/06/09 12:05:23;;;;;;;4.55;2.55;;;37.40;68.10;;;;;;5064365;28;20107;-80
2023/06/09 12:07:51;;;;;;;2.90;2.60;;;37.50;67.60;;;;;;5058410;28;20024;-80
2023/06/09 12:10:22;;;;;;;3.50;2.70;;;37.50;67.00;;;;;;5060251;28;20020;-80
2023/06/09 12:12:50;;;;;;;2.90;2.60;;;37.70;66.80;;;;;;5063130;28;20016;-82
2023/06/09 12:15:17;;;;;;;3.95;3.08;;;37.90;67.20;;;;;;5073027;28;20028;-82
2023/06/09 12:17:48;;;;;;;3.35;2.53;;;38.20;66.50;;;;;;5073987;28;20098;-80
2023/06/09 12:20:30;;;;;;;3.22;2.70;;;38.10;65.80;;;;;;5059213;28;20040;-82
2023/06/09 12:23:07;;;;;;;6.53;2.40;;;38.20;65.70;;;;;;5075533;28;20052;-81
2023/06/09 12:25:39;;;;;;;2.70;2.00;;;38.00;65.70;;;;;;5074146;28;20077;-82
2023/06/09 12:28:17;;;;;;;4.15;2.42;;;38.00;66.10;;;;;;5056296;28;20044;-81
2023/06/09 12:30:48;;;;;;;3.65;2.45;;;37.60;65.60;;;;;;5073446;28;20035;-82
2023/06/09 12:33:16;;;;;;;4.03;2.40;;;37.40;65.90;;;;;;5059488;28;20038;-81
2023/06/09 12:35:44;;;;;;;3.45;2.20;;;37.60;65.90;;;;;;5062362;28;20038;-82
2023/06/09 12:38:23;;;;;;;3.22;2.45;;;38.00;65.10;;;;;;5075005;28;20066;-82
2023/06/09 12:40:54;;;;;;;6.18;2.85;;;38.30;64.20;;;;;;5073395;28;20474;-82
2023/06/09 12:43:22;;;;;;;3.13;2.67;;;38.00;64.00;;;;;;5073129;28;20027;-84
2023/06/09 12:45:49;;;;;;;3.22;2.47;;;37.50;64.00;;;;;;5060939;28;20032;-83
2023/06/09 12:48:16;;;;;;;3.17;2.67;;;37.50;64.20;;;;;;5053054;28;20599;-82
2023/06/09 12:50:43;;;;;;;3.28;2.70;;;37.30;64.50;;;;;;5073604;28;20055;-81